createdAt,value
2023-03-01T00:01:25.167Z,0.70
2023-03-01T00:03:53.043Z,0.70
2023-03-01T00:06:21.624Z,0.70
2023-03-01T00:08:49.205Z,0.70
2023-03-01T00:11:20.814Z,0.60
2023-03-01T00:13:50.224Z,0.70
2023-03-01T00:16:20.766Z,0.70
2023-03-01T00:18:47.846Z,0.70
2023-03-01T00:21:15.023Z,0.70
2023-03-01T00:23:42.144Z,0.70
2023-03-01T00:26:12.989Z,0.70
2023-03-01T00:28:39.966Z,0.70
2023-03-01T00:31:09.273Z,0.60
2023-03-01T00:33:36.324Z,0.60
2023-03-01T00:36:03.637Z,0.50
2023-03-01T00:38:31.101Z,0.50
2023-03-01T00:41:08.388Z,0.50
2023-03-01T00:43:37.575Z,0.40
2023-03-01T00:46:13.479Z,0.50
2023-03-01T00:48:40.706Z,0.40
2023-03-01T00:51:09.668Z,0.40
2023-03-01T00:53:37.367Z,0.40
2023-03-01T00:56:06.374Z,0.40
2023-03-01T00:58:33.887Z,0.30
2023-03-01T01:01:01.342Z,0.40
2023-03-01T01:03:28.307Z,0.40
2023-03-01T01:05:55.197Z,0.60
2023-03-01T01:08:22.321Z,0.30
2023-03-01T01:10:49.329Z,0.30
2023-03-01T01:13:16.255Z,0.30
2023-03-01T01:15:43.237Z,0.30
2023-03-01T01:18:10.139Z,0.30
2023-03-01T01:20:38.128Z,0.30
2023-03-01T01:23:07.476Z,0.30
2023-03-01T01:25:37.158Z,0.30
2023-03-01T01:28:04.350Z,0.20
2023-03-01T01:30:31.251Z,0.20
2023-03-01T01:32:58.182Z,0.20
2023-03-01T01:35:25.572Z,0.20
2023-03-01T01:37:52.456Z,0.20
2023-03-01T01:40:19.365Z,0.20
2023-03-01T01:42:46.410Z,0.20
2023-03-01T01:45:31.194Z,0.20
2023-03-01T01:48:21.316Z,0.10
2023-03-01T01:50:56.313Z,0.10
2023-03-01T01:53:24.322Z,0.10
2023-03-01T01:56:00.052Z,0.10
2023-03-01T01:58:29.830Z,0.10
2023-03-01T02:00:57.351Z,0.10
2023-03-01T02:03:29.941Z,0.10
2023-03-01T02:06:04.184Z,0.10
2023-03-01T02:08:34.434Z,0.00
2023-03-01T02:11:05.050Z,0.00
2023-03-01T02:13:33.634Z,0.00
2023-03-01T02:16:03.678Z,0.00
2023-03-01T02:18:30.649Z,0.00
2023-03-01T02:21:11.313Z,0.00
2023-03-01T02:23:38.234Z,0.00
2023-03-01T02:26:35.999Z,0.00
2023-03-01T02:29:02.909Z,0.00
2023-03-01T02:31:44.900Z,0.00
2023-03-01T02:34:14.867Z,-0.10
2023-03-01T02:36:57.578Z,-0.10
2023-03-01T02:39:35.586Z,-0.10
2023-03-01T02:42:04.912Z,-0.10
2023-03-01T02:44:31.815Z,-0.10
2023-03-01T02:47:03.855Z,-0.10
2023-03-01T02:49:33.322Z,-0.20
2023-03-01T02:52:21.955Z,-0.20
2023-03-01T02:55:10.218Z,-0.10
2023-03-01T02:57:40.941Z,-0.20
2023-03-01T03:00:11.928Z,-0.20
2023-03-01T03:02:38.852Z,-0.20
2023-03-01T03:05:23.933Z,-0.20
2023-03-01T03:07:52.574Z,-0.20
2023-03-01T03:10:23.598Z,-0.10
2023-03-01T03:12:56.588Z,-0.20
2023-03-01T03:15:24.119Z,-0.30
2023-03-01T03:17:52.400Z,-0.30
2023-03-01T03:20:21.896Z,-0.30
2023-03-01T03:22:50.942Z,-0.20
2023-03-01T03:25:18.730Z,-0.30
2023-03-01T03:27:48.634Z,-0.20
2023-03-01T03:30:18.592Z,-0.30
2023-03-01T03:32:56.114Z,-0.30
2023-03-01T03:35:27.266Z,-0.30
2023-03-01T03:38:03.531Z,-0.30
2023-03-01T03:40:34.155Z,-0.40
2023-03-01T03:43:01.173Z,-0.40
2023-03-01T03:45:28.233Z,-0.40
2023-03-01T03:47:55.121Z,-0.40
2023-03-01T03:50:22.190Z,-0.40
2023-03-01T03:52:49.120Z,-0.40
2023-03-01T03:55:20.182Z,-0.20
2023-03-01T03:57:52.639Z,-0.20
2023-03-01T04:00:22.716Z,-0.40
2023-03-01T04:02:50.811Z,-0.40
2023-03-01T04:05:19.350Z,-0.40
2023-03-01T04:07:47.006Z,-0.40
2023-03-01T04:10:18.589Z,-0.50
2023-03-01T04:12:45.792Z,-0.60
2023-03-01T04:15:15.972Z,-0.60
2023-03-01T04:17:47.770Z,-0.60
2023-03-01T04:20:18.736Z,-0.70
2023-03-01T04:22:48.959Z,-0.70
2023-03-01T04:25:15.936Z,-0.70
2023-03-01T04:27:42.955Z,-0.70
2023-03-01T04:30:10.614Z,-0.70
2023-03-01T04:32:37.502Z,-0.70
2023-03-01T04:35:05.375Z,-0.70
2023-03-01T04:37:32.428Z,-0.70
2023-03-01T04:39:59.323Z,-0.70
2023-03-01T04:42:26.241Z,-0.70
2023-03-01T04:44:53.151Z,-0.70
2023-03-01T04:47:20.046Z,-0.70
2023-03-01T04:49:46.928Z,-0.70
2023-03-01T04:52:13.879Z,-0.70
2023-03-01T04:54:40.951Z,-0.80
2023-03-01T04:57:07.839Z,-0.80
2023-03-01T04:59:37.048Z,-0.80
2023-03-01T05:02:04.187Z,-0.80
2023-03-01T05:04:31.983Z,-0.80
2023-03-01T05:06:59.741Z,-0.80
2023-03-01T05:09:26.742Z,-0.80
2023-03-01T05:11:53.660Z,-0.70
2023-03-01T05:14:20.516Z,-0.90
2023-03-01T05:16:47.602Z,-0.90
2023-03-01T05:19:16.255Z,-0.90
2023-03-01T05:22:02.578Z,-1.00
2023-03-01T05:24:34.517Z,-1.00
2023-03-01T05:27:02.519Z,-1.00
2023-03-01T05:29:31.674Z,-1.00
2023-03-01T05:32:00.462Z,-1.00
2023-03-01T05:34:29.540Z,-1.10
2023-03-01T05:36:56.414Z,-1.10
2023-03-01T05:39:26.772Z,-1.20
2023-03-01T05:41:56.130Z,-1.20
2023-03-01T05:44:23.556Z,-1.20
2023-03-01T05:46:50.985Z,-1.30
2023-03-01T05:49:18.015Z,-1.30
2023-03-01T05:51:49.449Z,-1.30
2023-03-01T05:54:17.037Z,-1.30
2023-03-01T05:56:44.888Z,-1.30
2023-03-01T05:59:12.380Z,-1.30
2023-03-01T06:01:39.347Z,-1.10
2023-03-01T06:04:06.717Z,-1.20
2023-03-01T06:06:38.547Z,-1.20
2023-03-01T06:09:10.267Z,-1.20
2023-03-01T06:11:37.850Z,-1.10
2023-03-01T06:14:07.400Z,-1.10
2023-03-01T06:16:34.342Z,-1.10
2023-03-01T06:19:01.456Z,-1.10
2023-03-01T06:21:28.357Z,-1.10
2023-03-01T06:23:55.232Z,-1.10
2023-03-01T06:26:22.226Z,-1.10
2023-03-01T06:28:49.437Z,-1.10
2023-03-01T06:31:16.398Z,-1.10
2023-03-01T06:33:45.579Z,-1.10
2023-03-01T06:36:12.669Z,-1.00
2023-03-01T06:38:41.614Z,-1.00
2023-03-01T06:41:08.690Z,-1.00
2023-03-01T06:43:35.616Z,-0.70
2023-03-01T06:46:06.219Z,-0.90
2023-03-01T06:48:33.825Z,-0.90
2023-03-01T06:51:01.705Z,-0.80
2023-03-01T06:53:30.158Z,-0.60
2023-03-01T06:55:57.919Z,-0.50
2023-03-01T06:58:24.907Z,-0.60
2023-03-01T07:00:51.978Z,-0.50
2023-03-01T07:03:20.319Z,-0.40
2023-03-01T07:05:50.611Z,-0.40
2023-03-01T07:08:17.432Z,-0.30
2023-03-01T07:10:44.327Z,-0.30
2023-03-01T07:13:11.439Z,-0.30
2023-03-01T07:15:38.488Z,-0.20
2023-03-01T07:18:05.557Z,-0.10
2023-03-01T07:20:32.446Z,-0.10
2023-03-01T07:22:59.605Z,0.00
2023-03-01T07:25:26.578Z,0.00
2023-03-01T07:27:53.859Z,0.10
2023-03-01T07:30:21.919Z,0.10
2023-03-01T07:32:49.025Z,0.20
2023-03-01T07:35:15.997Z,0.20
2023-03-01T07:37:43.291Z,0.20
2023-03-01T07:40:11.178Z,0.50
2023-03-01T07:42:38.240Z,0.30
2023-03-01T07:45:06.769Z,0.50
2023-03-01T07:47:33.831Z,0.40
2023-03-01T07:50:02.203Z,0.40
2023-03-01T07:52:29.470Z,0.40
2023-03-01T07:54:56.519Z,0.50
2023-03-01T07:57:23.869Z,0.60
2023-03-01T07:59:50.936Z,0.60
2023-03-01T08:02:17.871Z,0.60
2023-03-01T08:04:45.003Z,0.70
2023-03-01T08:07:11.942Z,0.70
2023-03-01T08:09:39.007Z,0.60
2023-03-01T08:12:06.356Z,0.80
2023-03-01T08:14:34.398Z,0.90
2023-03-01T08:17:01.281Z,0.90
2023-03-01T08:19:29.242Z,1.00
2023-03-01T08:21:59.435Z,1.00
2023-03-01T08:24:26.862Z,1.10
2023-03-01T08:26:54.287Z,1.10
2023-03-01T08:29:21.659Z,1.40
2023-03-01T08:31:50.477Z,1.20
2023-03-01T08:34:19.269Z,1.20
2023-03-01T08:36:47.404Z,1.30
2023-03-01T08:39:17.287Z,1.30
2023-03-01T08:41:45.924Z,1.40
2023-03-01T08:44:17.774Z,1.40
2023-03-01T08:46:47.092Z,1.50
2023-03-01T08:49:16.601Z,1.50
2023-03-01T08:51:44.969Z,1.60
2023-03-01T08:54:15.667Z,1.60
2023-03-01T08:56:43.057Z,1.70
2023-03-01T08:59:11.969Z,1.70
2023-03-01T09:01:39.359Z,1.80
2023-03-01T09:04:06.389Z,2.10
2023-03-01T09:06:34.809Z,1.90
2023-03-01T09:09:01.964Z,2.00
2023-03-01T09:11:29.361Z,2.00
2023-03-01T09:13:56.713Z,2.00
2023-03-01T09:16:24.466Z,2.10
2023-03-01T09:18:53.392Z,2.10
2023-03-01T09:21:37.258Z,2.20
2023-03-01T09:24:07.346Z,2.20
2023-03-01T09:26:34.405Z,2.30
2023-03-01T09:29:01.260Z,2.60
2023-03-01T09:31:28.236Z,2.40
2023-03-01T09:33:55.876Z,2.50
2023-03-01T09:36:26.558Z,2.60
2023-03-01T09:38:54.279Z,2.60
2023-03-01T09:41:47.378Z,2.70
2023-03-01T09:44:40.759Z,2.80
2023-03-01T09:47:17.024Z,2.80
2023-03-01T09:49:49.670Z,3.00
2023-03-01T09:52:26.495Z,3.00
2023-03-01T09:54:59.416Z,3.10
2023-03-01T09:57:48.766Z,3.20
2023-03-01T10:00:48.247Z,3.20
2023-03-01T10:03:32.124Z,3.40
2023-03-01T10:06:10.035Z,3.40
2023-03-01T10:08:59.530Z,3.50
2023-03-01T10:11:39.270Z,3.50
2023-03-01T10:14:39.528Z,3.50
2023-03-01T10:17:28.714Z,3.60
2023-03-01T10:19:56.777Z,3.70
2023-03-01T10:22:26.130Z,3.70
2023-03-01T10:24:54.697Z,3.70
2023-03-01T10:27:26.468Z,3.80
2023-03-01T10:30:17.685Z,3.80
2023-03-01T10:32:45.710Z,3.80
2023-03-01T10:35:26.405Z,3.80
2023-03-01T10:38:15.333Z,3.80
2023-03-01T10:40:57.914Z,3.90
2023-03-01T10:43:52.591Z,3.90
2023-03-01T10:46:38.120Z,4.00
2023-03-01T10:49:26.528Z,4.00
2023-03-01T10:51:54.711Z,4.10
2023-03-01T10:54:33.369Z,4.20
2023-03-01T10:57:01.533Z,4.30
2023-03-01T10:59:34.627Z,4.30
2023-03-01T11:02:23.582Z,4.30
2023-03-01T11:05:00.572Z,4.30
2023-03-01T11:07:27.994Z,4.40
2023-03-01T11:09:54.946Z,4.40
2023-03-01T11:12:22.539Z,4.40
2023-03-01T11:14:55.861Z,4.40
2023-03-01T11:17:30.653Z,4.50
2023-03-01T11:20:08.374Z,4.80
2023-03-01T11:22:36.172Z,4.60
2023-03-01T11:25:10.410Z,4.60
2023-03-01T11:27:49.468Z,4.70
2023-03-01T11:30:31.881Z,4.60
2023-03-01T11:33:17.627Z,4.60
2023-03-01T11:36:16.684Z,4.70
2023-03-01T11:38:44.634Z,4.60
2023-03-01T11:41:16.583Z,4.70
2023-03-01T11:44:04.030Z,4.80
2023-03-01T11:46:41.364Z,4.80
2023-03-01T11:49:33.149Z,4.90
2023-03-01T11:52:04.809Z,4.90
2023-03-01T11:54:53.490Z,5.00
2023-03-01T11:57:54.717Z,5.00
2023-03-01T12:00:21.665Z,5.00
2023-03-01T12:03:05.528Z,5.00
2023-03-01T12:06:00.209Z,5.00
2023-03-01T12:08:38.852Z,5.00
2023-03-01T12:11:24.390Z,5.10
2023-03-01T12:14:03.344Z,5.20
2023-03-01T12:17:00.481Z,5.20
2023-03-01T12:19:52.620Z,5.30
2023-03-01T12:22:39.472Z,5.40
2023-03-01T12:25:24.888Z,5.50
2023-03-01T12:28:28.263Z,5.50
2023-03-01T12:31:13.879Z,5.60
2023-03-01T12:34:02.850Z,5.60
2023-03-01T12:36:52.832Z,5.70
2023-03-01T12:39:32.707Z,5.70
2023-03-01T12:42:14.556Z,5.70
2023-03-01T12:45:01.209Z,5.70
2023-03-01T12:47:36.987Z,5.70
2023-03-01T12:50:12.411Z,5.70
2023-03-01T12:52:48.641Z,5.70
2023-03-01T12:55:40.739Z,5.70
2023-03-01T12:58:37.025Z,5.70
2023-03-01T13:01:26.061Z,5.70
2023-03-01T13:04:02.216Z,5.70
2023-03-01T13:06:43.880Z,5.80
2023-03-01T13:09:35.298Z,5.90
2023-03-01T13:12:04.414Z,5.80
2023-03-01T13:14:45.056Z,5.80
2023-03-01T13:17:41.233Z,5.90
2023-03-01T13:20:14.481Z,6.00
2023-03-01T13:22:54.386Z,5.90
2023-03-01T13:25:24.336Z,5.90
2023-03-01T13:28:35.782Z,6.00
2023-03-01T13:31:08.550Z,6.10
2023-03-01T13:33:43.862Z,6.20
2023-03-01T13:36:35.279Z,6.20
2023-03-01T13:39:04.999Z,6.40
2023-03-01T13:41:44.190Z,6.20
2023-03-01T13:44:37.190Z,6.40
2023-03-01T13:47:18.635Z,6.30
2023-03-01T13:49:51.670Z,6.30
2023-03-01T13:52:30.592Z,6.30
2023-03-01T13:54:58.545Z,6.30
2023-03-01T13:57:31.365Z,6.40
2023-03-01T13:59:58.258Z,6.40
2023-03-01T14:02:25.359Z,6.40
2023-03-01T14:05:00.523Z,6.40
2023-03-01T14:07:31.846Z,6.40
2023-03-01T14:10:06.408Z,6.40
2023-03-01T14:12:39.458Z,6.40
2023-03-01T14:15:37.532Z,6.50
2023-03-01T14:18:36.105Z,6.50
2023-03-01T14:21:09.106Z,6.70
2023-03-01T14:23:39.497Z,6.50
2023-03-01T14:26:06.373Z,6.50
2023-03-01T14:28:58.352Z,6.50
2023-03-01T14:31:52.030Z,6.50
2023-03-01T14:34:22.598Z,6.40
2023-03-01T14:36:49.527Z,6.50
2023-03-01T14:39:27.399Z,6.50
2023-03-01T14:41:54.455Z,6.50
2023-03-01T14:44:25.453Z,6.50
2023-03-01T14:46:56.986Z,6.60
2023-03-01T14:49:32.307Z,6.70
2023-03-01T14:52:06.432Z,6.60
2023-03-01T14:54:45.759Z,6.60
2023-03-01T14:57:22.856Z,6.60
2023-03-01T14:59:55.814Z,6.70
2023-03-01T15:02:26.310Z,6.70
2023-03-01T15:04:57.640Z,6.70
2023-03-01T15:07:30.347Z,6.70
2023-03-01T15:09:58.419Z,6.70
2023-03-01T15:12:45.575Z,6.70
2023-03-01T15:15:33.524Z,6.70
2023-03-01T15:18:12.789Z,6.80
2023-03-01T15:20:40.190Z,6.80
2023-03-01T15:23:16.371Z,6.80
2023-03-01T15:25:45.775Z,6.80
2023-03-01T15:28:21.389Z,6.90
2023-03-01T15:30:56.636Z,6.90
2023-03-01T15:33:23.442Z,6.90
2023-03-01T15:35:54.659Z,6.90
2023-03-01T15:38:30.426Z,6.90
2023-03-01T15:40:58.695Z,7.00
2023-03-01T15:44:02.142Z,6.90
2023-03-01T15:46:33.841Z,6.90
2023-03-01T15:49:04.312Z,7.00
2023-03-01T15:51:35.116Z,6.90
2023-03-01T15:54:12.367Z,6.90
2023-03-01T15:56:39.384Z,6.90
2023-03-01T15:59:08.141Z,6.90
2023-03-01T16:01:35.749Z,6.90
2023-03-01T16:04:02.717Z,6.90
2023-03-01T16:06:29.883Z,6.80
2023-03-01T16:08:56.928Z,6.90
2023-03-01T16:11:23.915Z,6.80
2023-03-01T16:13:50.926Z,6.80
2023-03-01T16:16:18.175Z,6.80
2023-03-01T16:18:47.125Z,6.80
2023-03-01T16:21:25.687Z,6.70
2023-03-01T16:23:53.840Z,6.70
2023-03-01T16:26:21.604Z,6.70
2023-03-01T16:28:48.838Z,6.80
2023-03-01T16:31:19.643Z,6.60
2023-03-01T16:33:50.966Z,6.50
2023-03-01T16:36:22.051Z,6.50
2023-03-01T16:38:49.424Z,6.50
2023-03-01T16:41:18.579Z,6.40
2023-03-01T16:43:47.595Z,6.40
2023-03-01T16:46:27.648Z,6.30
2023-03-01T16:48:55.717Z,6.30
2023-03-01T16:51:24.299Z,6.20
2023-03-01T16:53:52.196Z,6.20
2023-03-01T16:56:19.858Z,6.10
2023-03-01T16:58:46.961Z,6.10
2023-03-01T17:01:17.458Z,6.10
2023-03-01T17:03:47.134Z,6.00
2023-03-01T17:06:17.869Z,6.00
2023-03-01T17:08:44.877Z,6.00
2023-03-01T17:11:17.421Z,5.80
2023-03-01T17:13:45.231Z,5.80
2023-03-01T17:16:15.323Z,5.70
2023-03-01T17:18:42.523Z,5.60
2023-03-01T17:21:10.128Z,5.50
2023-03-01T17:23:39.908Z,5.50
2023-03-01T17:26:06.952Z,5.40
2023-03-01T17:28:36.375Z,5.40
2023-03-01T17:31:05.551Z,5.30
2023-03-01T17:33:32.783Z,5.30
2023-03-01T17:36:00.493Z,5.20
2023-03-01T17:38:27.939Z,5.20
2023-03-01T17:40:56.945Z,5.10
2023-03-01T17:43:30.148Z,5.10
2023-03-01T17:49:15.834Z,5.00
2023-03-01T17:51:51.128Z,5.00
2023-03-01T17:54:19.973Z,5.00
2023-03-01T17:56:48.969Z,5.00
2023-03-01T17:59:26.295Z,4.90
2023-03-01T18:01:57.635Z,4.90
2023-03-01T18:04:36.163Z,4.80
2023-03-01T18:10:05.106Z,4.70
2023-03-01T18:12:34.892Z,4.60
2023-03-01T18:15:19.144Z,4.50
2023-03-01T18:17:53.500Z,4.50
2023-03-01T19:24:56.283Z,3.40
2023-03-01T19:27:23.262Z,3.50
2023-03-01T19:29:50.314Z,3.40
2023-03-01T19:32:17.304Z,3.40
2023-03-01T19:34:44.422Z,3.40
2023-03-01T19:37:36.914Z,3.30
2023-03-01T19:40:04.264Z,3.40
2023-03-01T19:42:31.506Z,3.30
2023-03-01T19:45:02.522Z,3.20
2023-03-01T19:47:29.557Z,3.20
2023-03-01T19:49:56.870Z,3.30
2023-03-01T19:52:23.913Z,3.10
2023-03-01T19:54:53.810Z,3.10
